sensor_id;sensor_type;location;lat;lon;timestamp;temperature;humidity
59771;DHT22;45649;53.014;6.600;2022-07-29T00:00:58;15.80;79.50
59771;DHT22;45649;53.014;6.600;2022-07-29T00:03:23;15.70;78.70
59771;DHT22;45649;53.014;6.600;2022-07-29T00:05:51;15.90;79.20
59771;DHT22;45649;53.014;6.600;2022-07-29T00:08:18;15.70;79.40
59771;DHT22;45649;53.014;6.600;2022-07-29T00:10:44;15.70;79.30
59771;DHT22;45649;53.014;6.600;2022-07-29T00:13:09;15.60;80.10
59771;DHT22;45649;53.014;6.600;2022-07-29T00:15:35;15.60;79.90
59771;DHT22;45649;53.014;6.600;2022-07-29T00:18:01;15.70;78.50
59771;DHT22;45649;53.014;6.600;2022-07-29T00:20:27;15.70;79.60
59771;DHT22;45649;53.014;6.600;2022-07-29T00:22:53;15.60;80.20
59771;DHT22;45649;53.014;6.600;2022-07-29T00:25:19;15.50;80.30
59771;DHT22;45649;53.014;6.600;2022-07-29T00:27:45;15.60;79.90
59771;DHT22;45649;53.014;6.600;2022-07-29T00:30:13;15.60;79.90
59771;DHT22;45649;53.014;6.600;2022-07-29T00:32:39;15.50;81.00
59771;DHT22;45649;53.014;6.600;2022-07-29T00:35:06;15.50;80.90
59771;DHT22;45649;53.014;6.600;2022-07-29T00:37:50;15.50;81.30
59771;DHT22;45649;53.014;6.600;2022-07-29T00:40:16;15.50;80.50
59771;DHT22;45649;53.014;6.600;2022-07-29T00:42:46;15.50;80.60
59771;DHT22;45649;53.014;6.600;2022-07-29T00:45:13;15.60;81.50
59771;DHT22;45649;53.014;6.600;2022-07-29T00:47:39;15.50;81.40
59771;DHT22;45649;53.014;6.600;2022-07-29T00:50:07;15.50;82.00
59771;DHT22;45649;53.014;6.600;2022-07-29T00:52:36;15.50;82.30
59771;DHT22;45649;53.014;6.600;2022-07-29T00:55:03;15.50;82.00
59771;DHT22;45649;53.014;6.600;2022-07-29T00:57:30;15.50;81.70
59771;DHT22;45649;53.014;6.600;2022-07-29T00:59:56;15.40;82.40
59771;DHT22;45649;53.014;6.600;2022-07-29T01:02:21;15.50;82.00
59771;DHT22;45649;53.014;6.600;2022-07-29T01:04:48;15.50;82.10
59771;DHT22;45649;53.014;6.600;2022-07-29T01:07:14;15.50;81.90
59771;DHT22;45649;53.014;6.600;2022-07-29T01:09:40;15.50;82.20
59771;DHT22;45649;53.014;6.600;2022-07-29T01:12:08;15.40;82.60
59771;DHT22;45649;53.014;6.600;2022-07-29T01:14:35;15.40;82.70
59771;DHT22;45649;53.014;6.600;2022-07-29T01:19:58;15.40;83.00
59771;DHT22;45649;53.014;6.600;2022-07-29T01:30:27;15.50;82.30
59771;DHT22;45649;53.014;6.600;2022-07-29T01:32:59;15.40;82.00
59771;DHT22;45649;53.014;6.600;2022-07-29T01:35:30;15.50;81.70
59771;DHT22;45649;53.014;6.600;2022-07-29T01:38:24;15.50;81.70
59771;DHT22;45649;53.014;6.600;2022-07-29T01:40:53;15.50;82.80
59771;DHT22;45649;53.014;6.600;2022-07-29T01:43:32;15.40;81.40
59771;DHT22;45649;53.014;6.600;2022-07-29T01:46:11;15.40;81.10
59771;DHT22;45649;53.014;6.600;2022-07-29T01:48:50;15.50;80.70
59771;DHT22;45649;53.014;6.600;2022-07-29T01:51:21;15.50;80.40
59771;DHT22;45649;53.014;6.600;2022-07-29T01:53:57;15.50;79.90
59771;DHT22;45649;53.014;6.600;2022-07-29T01:56:28;15.50;79.90
59771;DHT22;45649;53.014;6.600;2022-07-29T01:58:57;15.50;79.70
59771;DHT22;45649;53.014;6.600;2022-07-29T02:01:24;15.50;79.30
59771;DHT22;45649;53.014;6.600;2022-07-29T02:03:50;15.50;79.20
59771;DHT22;45649;53.014;6.600;2022-07-29T02:06:19;15.50;79.30
59771;DHT22;45649;53.014;6.600;2022-07-29T02:08:47;15.50;79.20
59771;DHT22;45649;53.014;6.600;2022-07-29T02:11:13;15.50;79.10
59771;DHT22;45649;53.014;6.600;2022-07-29T02:13:39;15.50;79.30
59771;DHT22;45649;53.014;6.600;2022-07-29T02:16:06;15.50;79.50
59771;DHT22;45649;53.014;6.600;2022-07-29T02:18:36;15.50;79.50
59771;DHT22;45649;53.014;6.600;2022-07-29T02:21:03;15.50;79.70
59771;DHT22;45649;53.014;6.600;2022-07-29T02:23:30;15.50;80.00
59771;DHT22;45649;53.014;6.600;2022-07-29T02:25:59;15.40;79.80
59771;DHT22;45649;53.014;6.600;2022-07-29T02:28:29;15.50;79.80
59771;DHT22;45649;53.014;6.600;2022-07-29T02:30:59;15.40;80.20
59771;DHT22;45649;53.014;6.600;2022-07-29T02:33:26;15.50;79.50
59771;DHT22;45649;53.014;6.600;2022-07-29T02:35:54;15.50;80.20
59771;DHT22;45649;53.014;6.600;2022-07-29T02:38:22;15.40;80.10
59771;DHT22;45649;53.014;6.600;2022-07-29T02:41:11;15.50;79.70
59771;DHT22;45649;53.014;6.600;2022-07-29T02:43:39;15.40;80.40
59771;DHT22;45649;53.014;6.600;2022-07-29T02:46:13;15.40;80.40
59771;DHT22;45649;53.014;6.600;2022-07-29T02:48:50;15.40;80.20
59771;DHT22;45649;53.014;6.600;2022-07-29T02:51:27;15.40;80.10
59771;DHT22;45649;53.014;6.600;2022-07-29T02:53:54;15.40;81.00
59771;DHT22;45649;53.014;6.600;2022-07-29T02:56:25;15.40;80.20
59771;DHT22;45649;53.014;6.600;2022-07-29T02:58:58;15.50;79.90
59771;DHT22;45649;53.014;6.600;2022-07-29T03:01:25;15.50;79.80
59771;DHT22;45649;53.014;6.600;2022-07-29T03:03:56;15.50;79.80
59771;DHT22;45649;53.014;6.600;2022-07-29T03:06:24;15.50;79.40
59771;DHT22;45649;53.014;6.600;2022-07-29T03:08:50;15.40;79.70
59771;DHT22;45649;53.014;6.600;2022-07-29T03:11:17;15.40;79.50
59771;DHT22;45649;53.014;6.600;2022-07-29T03:13:44;15.50;79.10
59771;DHT22;45649;53.014;6.600;2022-07-29T03:16:10;15.40;79.20
59771;DHT22;45649;53.014;6.600;2022-07-29T03:18:37;15.40;79.40
59771;DHT22;45649;53.014;6.600;2022-07-29T03:21:03;15.40;79.40
59771;DHT22;45649;53.014;6.600;2022-07-29T03:23:29;15.40;79.30
59771;DHT22;45649;53.014;6.600;2022-07-29T03:25:55;15.40;78.90
59771;DHT22;45649;53.014;6.600;2022-07-29T03:28:22;15.40;78.80
59771;DHT22;45649;53.014;6.600;2022-07-29T03:30:48;15.40;79.10
59771;DHT22;45649;53.014;6.600;2022-07-29T03:33:15;15.40;79.80
59771;DHT22;45649;53.014;6.600;2022-07-29T03:35:41;15.40;79.00
59771;DHT22;45649;53.014;6.600;2022-07-29T03:38:07;15.30;79.20
59771;DHT22;45649;53.014;6.600;2022-07-29T03:43:09;15.30;79.10
59771;DHT22;45649;53.014;6.600;2022-07-29T03:45:36;15.40;78.30
59771;DHT22;45649;53.014;6.600;2022-07-29T03:48:07;15.40;78.60
59771;DHT22;45649;53.014;6.600;2022-07-29T03:50:34;15.30;78.60
59771;DHT22;45649;53.014;6.600;2022-07-29T03:53:01;15.30;78.50
59771;DHT22;45649;53.014;6.600;2022-07-29T03:55:29;15.40;78.20
59771;DHT22;45649;53.014;6.600;2022-07-29T03:57:58;15.40;78.30
59771;DHT22;45649;53.014;6.600;2022-07-29T04:00:26;15.40;78.30
59771;DHT22;45649;53.014;6.600;2022-07-29T04:02:52;15.40;78.40
59771;DHT22;45649;53.014;6.600;2022-07-29T04:05:19;15.30;78.50
59771;DHT22;45649;53.014;6.600;2022-07-29T04:07:45;15.30;78.30
59771;DHT22;45649;53.014;6.600;2022-07-29T04:10:12;15.30;78.60
59771;DHT22;45649;53.014;6.600;2022-07-29T04:12:39;15.30;78.70
59771;DHT22;45649;53.014;6.600;2022-07-29T04:15:05;15.30;78.50
59771;DHT22;45649;53.014;6.600;2022-07-29T04:17:32;15.40;78.20
59771;DHT22;45649;53.014;6.600;2022-07-29T04:19:58;15.40;77.70
59771;DHT22;45649;53.014;6.600;2022-07-29T04:22:24;15.30;78.50
59771;DHT22;45649;53.014;6.600;2022-07-29T04:24:50;15.40;78.80
59771;DHT22;45649;53.014;6.600;2022-07-29T04:27:15;15.40;78.00
59771;DHT22;45649;53.014;6.600;2022-07-29T04:29:41;15.40;78.40
59771;DHT22;45649;53.014;6.600;2022-07-29T04:32:07;15.40;78.70
59771;DHT22;45649;53.014;6.600;2022-07-29T04:34:33;15.40;78.70
59771;DHT22;45649;53.014;6.600;2022-07-29T04:36:58;15.50;78.60
59771;DHT22;45649;53.014;6.600;2022-07-29T04:39:24;15.40;78.50
59771;DHT22;45649;53.014;6.600;2022-07-29T04:41:51;15.50;78.30
59771;DHT22;45649;53.014;6.600;2022-07-29T04:44:17;15.50;78.30
59771;DHT22;45649;53.014;6.600;2022-07-29T04:46:44;15.40;78.70
59771;DHT22;45649;53.014;6.600;2022-07-29T04:49:10;15.40;78.80
59771;DHT22;45649;53.014;6.600;2022-07-29T04:51:36;15.40;79.00
59771;DHT22;45649;53.014;6.600;2022-07-29T04:54:03;15.40;78.90
59771;DHT22;45649;53.014;6.600;2022-07-29T04:56:29;15.60;78.80
59771;DHT22;45649;53.014;6.600;2022-07-29T04:58:55;15.50;78.90
59771;DHT22;45649;53.014;6.600;2022-07-29T05:01:20;15.50;78.70
59771;DHT22;45649;53.014;6.600;2022-07-29T05:03:46;15.50;79.10
59771;DHT22;45649;53.014;6.600;2022-07-29T05:06:12;15.40;79.40
59771;DHT22;45649;53.014;6.600;2022-07-29T05:08:39;15.40;79.10
59771;DHT22;45649;53.014;6.600;2022-07-29T05:11:05;15.50;78.50
59771;DHT22;45649;53.014;6.600;2022-07-29T05:13:31;15.50;79.00
59771;DHT22;45649;53.014;6.600;2022-07-29T05:15:57;15.40;79.10
59771;DHT22;45649;53.014;6.600;2022-07-29T05:18:43;15.40;79.10
59771;DHT22;45649;53.014;6.600;2022-07-29T05:21:09;15.50;79.40
59771;DHT22;45649;53.014;6.600;2022-07-29T05:23:36;15.40;79.60
59771;DHT22;45649;53.014;6.600;2022-07-29T05:26:01;15.40;79.90
59771;DHT22;45649;53.014;6.600;2022-07-29T05:28:27;15.40;80.10
59771;DHT22;45649;53.014;6.600;2022-07-29T05:30:53;15.40;79.70
59771;DHT22;45649;53.014;6.600;2022-07-29T05:33:19;15.40;79.90
59771;DHT22;45649;53.014;6.600;2022-07-29T05:35:45;15.50;79.50
59771;DHT22;45649;53.014;6.600;2022-07-29T05:38:10;15.50;79.70
59771;DHT22;45649;53.014;6.600;2022-07-29T05:40:36;15.40;80.20
59771;DHT22;45649;53.014;6.600;2022-07-29T05:43:02;15.40;80.00
59771;DHT22;45649;53.014;6.600;2022-07-29T05:45:28;15.40;80.40
59771;DHT22;45649;53.014;6.600;2022-07-29T05:47:54;15.50;79.50
59771;DHT22;45649;53.014;6.600;2022-07-29T05:50:20;15.50;80.20
59771;DHT22;45649;53.014;6.600;2022-07-29T05:52:46;15.50;80.10
59771;DHT22;45649;53.014;6.600;2022-07-29T05:55:12;15.50;80.20
59771;DHT22;45649;53.014;6.600;2022-07-29T05:57:38;15.60;80.10
59771;DHT22;45649;53.014;6.600;2022-07-29T06:00:04;15.50;79.60
59771;DHT22;45649;53.014;6.600;2022-07-29T06:02:30;15.60;79.90
59771;DHT22;45649;53.014;6.600;2022-07-29T06:04:56;15.60;80.20
59771;DHT22;45649;53.014;6.600;2022-07-29T06:07:23;15.60;80.20
59771;DHT22;45649;53.014;6.600;2022-07-29T06:09:48;15.70;80.10
59771;DHT22;45649;53.014;6.600;2022-07-29T06:12:14;15.60;80.10
59771;DHT22;45649;53.014;6.600;2022-07-29T06:14:40;15.70;79.90
59771;DHT22;45649;53.014;6.600;2022-07-29T06:17:06;15.70;79.80
59771;DHT22;45649;53.014;6.600;2022-07-29T06:19:34;15.90;79.50
59771;DHT22;45649;53.014;6.600;2022-07-29T06:22:00;16.00;79.00
59771;DHT22;45649;53.014;6.600;2022-07-29T06:24:26;16.10;79.00
59771;DHT22;45649;53.014;6.600;2022-07-29T06:26:52;16.10;79.10
59771;DHT22;45649;53.014;6.600;2022-07-29T06:29:19;16.10;78.70
59771;DHT22;45649;53.014;6.600;2022-07-29T06:31:44;16.00;78.60
59771;DHT22;45649;53.014;6.600;2022-07-29T06:34:10;16.10;78.50
59771;DHT22;45649;53.014;6.600;2022-07-29T06:36:37;16.10;78.20
59771;DHT22;45649;53.014;6.600;2022-07-29T06:39:06;16.10;78.50
59771;DHT22;45649;53.014;6.600;2022-07-29T06:41:33;16.10;78.30
59771;DHT22;45649;53.014;6.600;2022-07-29T06:43:58;16.00;78.30
59771;DHT22;45649;53.014;6.600;2022-07-29T06:46:24;16.10;77.90
59771;DHT22;45649;53.014;6.600;2022-07-29T06:48:50;16.10;78.70
59771;DHT22;45649;53.014;6.600;2022-07-29T06:51:17;16.20;77.90
59771;DHT22;45649;53.014;6.600;2022-07-29T06:53:44;16.20;77.70
59771;DHT22;45649;53.014;6.600;2022-07-29T06:56:10;16.30;77.70
59771;DHT22;45649;53.014;6.600;2022-07-29T06:58:39;16.30;76.80
59771;DHT22;45649;53.014;6.600;2022-07-29T07:01:05;16.30;76.20
59771;DHT22;45649;53.014;6.600;2022-07-29T07:03:32;16.40;76.40
59771;DHT22;45649;53.014;6.600;2022-07-29T07:05:58;16.40;76.50
59771;DHT22;45649;53.014;6.600;2022-07-29T07:08:24;16.40;77.50
59771;DHT22;45649;53.014;6.600;2022-07-29T07:10:51;16.30;76.10
59771;DHT22;45649;53.014;6.600;2022-07-29T07:13:17;16.30;75.90
59771;DHT22;45649;53.014;6.600;2022-07-29T07:15:44;16.30;76.60
59771;DHT22;45649;53.014;6.600;2022-07-29T07:18:10;16.40;76.60
59771;DHT22;45649;53.014;6.600;2022-07-29T07:20:36;16.50;76.90
59771;DHT22;45649;53.014;6.600;2022-07-29T07:23:02;16.50;76.40
59771;DHT22;45649;53.014;6.600;2022-07-29T07:25:28;16.50;76.50
59771;DHT22;45649;53.014;6.600;2022-07-29T07:27:54;16.60;76.70
59771;DHT22;45649;53.014;6.600;2022-07-29T07:30:20;16.70;76.30
59771;DHT22;45649;53.014;6.600;2022-07-29T07:32:46;16.60;76.40
59771;DHT22;45649;53.014;6.600;2022-07-29T07:35:12;16.60;76.10
59771;DHT22;45649;53.014;6.600;2022-07-29T07:37:38;16.70;76.00
59771;DHT22;45649;53.014;6.600;2022-07-29T07:40:07;16.70;75.60
59771;DHT22;45649;53.014;6.600;2022-07-29T07:42:33;16.80;75.00
59771;DHT22;45649;53.014;6.600;2022-07-29T07:44:59;16.90;74.40
59771;DHT22;45649;53.014;6.600;2022-07-29T07:47:25;16.90;75.20
59771;DHT22;45649;53.014;6.600;2022-07-29T07:49:52;16.90;75.00
59771;DHT22;45649;53.014;6.600;2022-07-29T07:52:20;16.90;75.20
59771;DHT22;45649;53.014;6.600;2022-07-29T07:54:46;17.00;74.80
59771;DHT22;45649;53.014;6.600;2022-07-29T07:57:13;17.00;75.20
59771;DHT22;45649;53.014;6.600;2022-07-29T07:59:39;17.00;75.20
59771;DHT22;45649;53.014;6.600;2022-07-29T08:02:05;17.00;74.90
59771;DHT22;45649;53.014;6.600;2022-07-29T08:04:32;17.10;74.70
59771;DHT22;45649;53.014;6.600;2022-07-29T08:06:58;17.10;74.60
59771;DHT22;45649;53.014;6.600;2022-07-29T08:09:25;17.10;74.20
59771;DHT22;45649;53.014;6.600;2022-07-29T08:11:52;17.00;73.90
59771;DHT22;45649;53.014;6.600;2022-07-29T08:14:18;17.10;74.20
59771;DHT22;45649;53.014;6.600;2022-07-29T08:16:44;17.20;73.20
59771;DHT22;45649;53.014;6.600;2022-07-29T08:19:10;17.30;73.00
59771;DHT22;45649;53.014;6.600;2022-07-29T08:21:36;17.30;73.80
59771;DHT22;45649;53.014;6.600;2022-07-29T08:24:02;17.20;73.60
59771;DHT22;45649;53.014;6.600;2022-07-29T08:26:47;17.30;73.50
59771;DHT22;45649;53.014;6.600;2022-07-29T08:29:13;17.30;73.60
59771;DHT22;45649;53.014;6.600;2022-07-29T08:31:39;17.30;73.70
59771;DHT22;45649;53.014;6.600;2022-07-29T08:34:06;17.30;72.50
59771;DHT22;45649;53.014;6.600;2022-07-29T08:36:32;17.30;72.60
59771;DHT22;45649;53.014;6.600;2022-07-29T08:38:59;17.30;72.50
59771;DHT22;45649;53.014;6.600;2022-07-29T08:41:25;17.30;72.80
59771;DHT22;45649;53.014;6.600;2022-07-29T08:43:51;17.30;73.40
59771;DHT22;45649;53.014;6.600;2022-07-29T08:46:18;17.40;73.20
59771;DHT22;45649;53.014;6.600;2022-07-29T08:48:44;17.40;72.90
59771;DHT22;45649;53.014;6.600;2022-07-29T08:51:16;17.40;72.90
59771;DHT22;45649;53.014;6.600;2022-07-29T08:53:44;17.40;73.20
59771;DHT22;45649;53.014;6.600;2022-07-29T08:56:14;17.50;73.30
59771;DHT22;45649;53.014;6.600;2022-07-29T08:58:41;17.40;73.40
59771;DHT22;45649;53.014;6.600;2022-07-29T09:01:07;17.40;72.80
59771;DHT22;45649;53.014;6.600;2022-07-29T09:03:35;17.40;72.10
59771;DHT22;45649;53.014;6.600;2022-07-29T09:06:02;17.40;72.50
59771;DHT22;45649;53.014;6.600;2022-07-29T09:08:29;17.60;72.80
59771;DHT22;45649;53.014;6.600;2022-07-29T09:10:56;17.60;72.60
59771;DHT22;45649;53.014;6.600;2022-07-29T09:13:22;17.60;72.30
59771;DHT22;45649;53.014;6.600;2022-07-29T09:15:50;17.60;71.70
59771;DHT22;45649;53.014;6.600;2022-07-29T09:21:03;17.80;71.90
59771;DHT22;45649;53.014;6.600;2022-07-29T09:24:08;17.90;72.20
59771;DHT22;45649;53.014;6.600;2022-07-29T09:26:37;17.80;71.40
59771;DHT22;45649;53.014;6.600;2022-07-29T09:29:18;17.80;71.20
59771;DHT22;45649;53.014;6.600;2022-07-29T09:31:46;17.80;71.30
59771;DHT22;45649;53.014;6.600;2022-07-29T09:34:14;17.80;71.50
59771;DHT22;45649;53.014;6.600;2022-07-29T09:36:42;17.80;71.90
59771;DHT22;45649;53.014;6.600;2022-07-29T09:39:09;17.90;72.20
59771;DHT22;45649;53.014;6.600;2022-07-29T09:41:48;17.90;72.30
59771;DHT22;45649;53.014;6.600;2022-07-29T09:44:15;18.00;72.70
59771;DHT22;45649;53.014;6.600;2022-07-29T09:46:53;18.00;72.20
59771;DHT22;45649;53.014;6.600;2022-07-29T09:49:18;18.00;71.70
59771;DHT22;45649;53.014;6.600;2022-07-29T09:51:45;18.00;72.00
59771;DHT22;45649;53.014;6.600;2022-07-29T09:54:23;18.00;73.20
59771;DHT22;45649;53.014;6.600;2022-07-29T09:56:49;18.00;72.20
59771;DHT22;45649;53.014;6.600;2022-07-29T09:59:15;18.00;71.90
59771;DHT22;45649;53.014;6.600;2022-07-29T10:01:41;18.00;71.80
59771;DHT22;45649;53.014;6.600;2022-07-29T10:04:07;18.10;72.00
59771;DHT22;45649;53.014;6.600;2022-07-29T10:06:33;18.10;72.20
59771;DHT22;45649;53.014;6.600;2022-07-29T10:09:09;18.00;72.10
59771;DHT22;45649;53.014;6.600;2022-07-29T10:11:35;18.20;71.40
59771;DHT22;45649;53.014;6.600;2022-07-29T10:14:03;18.20;71.60
59771;DHT22;45649;53.014;6.600;2022-07-29T10:16:29;18.10;71.70
59771;DHT22;45649;53.014;6.600;2022-07-29T10:18:59;18.10;71.90
59771;DHT22;45649;53.014;6.600;2022-07-29T10:21:27;18.10;72.10
59771;DHT22;45649;53.014;6.600;2022-07-29T10:23:55;18.10;72.20
59771;DHT22;45649;53.014;6.600;2022-07-29T10:26:22;18.20;72.30
59771;DHT22;45649;53.014;6.600;2022-07-29T10:28:49;18.20;72.10
59771;DHT22;45649;53.014;6.600;2022-07-29T10:31:48;18.20;73.60
59771;DHT22;45649;53.014;6.600;2022-07-29T10:34:49;18.20;72.00
59771;DHT22;45649;53.014;6.600;2022-07-29T10:43:37;18.30;71.90
59771;DHT22;45649;53.014;6.600;2022-07-29T10:46:04;18.40;72.50
59771;DHT22;45649;53.014;6.600;2022-07-29T10:48:30;18.40;71.70
59771;DHT22;45649;53.014;6.600;2022-07-29T10:51:00;18.30;71.70
59771;DHT22;45649;53.014;6.600;2022-07-29T10:53:48;18.40;72.20
59771;DHT22;45649;53.014;6.600;2022-07-29T10:56:28;18.50;74.00
59771;DHT22;45649;53.014;6.600;2022-07-29T11:01:42;18.60;71.60
59771;DHT22;45649;53.014;6.600;2022-07-29T11:04:08;18.70;71.20
59771;DHT22;45649;53.014;6.600;2022-07-29T11:09:32;18.80;71.00
59771;DHT22;45649;53.014;6.600;2022-07-29T11:11:57;18.90;70.20
59771;DHT22;45649;53.014;6.600;2022-07-29T11:14:59;19.10;70.50
59771;DHT22;45649;53.014;6.600;2022-07-29T11:17:27;19.00;70.80
59771;DHT22;45649;53.014;6.600;2022-07-29T11:22:58;19.30;71.00
59771;DHT22;45649;53.014;6.600;2022-07-29T11:25:24;19.40;70.10
59771;DHT22;45649;53.014;6.600;2022-07-29T11:27:52;19.40;69.30
59771;DHT22;45649;53.014;6.600;2022-07-29T11:30:18;19.60;69.20
59771;DHT22;45649;53.014;6.600;2022-07-29T11:32:44;19.70;69.30
59771;DHT22;45649;53.014;6.600;2022-07-29T11:35:16;20.00;69.00
59771;DHT22;45649;53.014;6.600;2022-07-29T11:37:43;20.20;69.40
59771;DHT22;45649;53.014;6.600;2022-07-29T11:40:12;20.20;67.50
59771;DHT22;45649;53.014;6.600;2022-07-29T11:42:43;20.20;67.60
59771;DHT22;45649;53.014;6.600;2022-07-29T11:45:18;20.40;67.90
59771;DHT22;45649;53.014;6.600;2022-07-29T11:50:34;20.80;67.20
59771;DHT22;45649;53.014;6.600;2022-07-29T11:53:02;21.10;66.70
59771;DHT22;45649;53.014;6.600;2022-07-29T11:55:28;21.30;66.50
59771;DHT22;45649;53.014;6.600;2022-07-29T11:57:57;21.30;65.70
59771;DHT22;45649;53.014;6.600;2022-07-29T12:00:39;21.00;65.60
59771;DHT22;45649;53.014;6.600;2022-07-29T12:03:10;21.10;66.40
59771;DHT22;45649;53.014;6.600;2022-07-29T12:05:44;21.10;66.40
59771;DHT22;45649;53.014;6.600;2022-07-29T12:08:17;21.30;66.50
59771;DHT22;45649;53.014;6.600;2022-07-29T12:10:51;21.50;65.70
59771;DHT22;45649;53.014;6.600;2022-07-29T12:13:20;21.40;63.90
59771;DHT22;45649;53.014;6.600;2022-07-29T12:15:53;21.40;62.80
59771;DHT22;45649;53.014;6.600;2022-07-29T12:18:20;21.30;63.40
59771;DHT22;45649;53.014;6.600;2022-07-29T12:20:47;21.40;63.70
59771;DHT22;45649;53.014;6.600;2022-07-29T12:23:14;21.50;63.60
59771;DHT22;45649;53.014;6.600;2022-07-29T12:25:43;21.40;63.70
59771;DHT22;45649;53.014;6.600;2022-07-29T12:28:15;21.50;64.10
59771;DHT22;45649;53.014;6.600;2022-07-29T12:30:46;21.60;63.40
59771;DHT22;45649;53.014;6.600;2022-07-29T12:33:22;21.50;63.30
59771;DHT22;45649;53.014;6.600;2022-07-29T12:36:07;21.50;64.40
59771;DHT22;45649;53.014;6.600;2022-07-29T12:38:34;21.50;62.50
59771;DHT22;45649;53.014;6.600;2022-07-29T12:41:00;21.50;62.80
59771;DHT22;45649;53.014;6.600;2022-07-29T12:43:27;21.60;63.70
59771;DHT22;45649;53.014;6.600;2022-07-29T12:45:56;21.70;63.90
59771;DHT22;45649;53.014;6.600;2022-07-29T12:48:36;21.80;62.70
59771;DHT22;45649;53.014;6.600;2022-07-29T12:51:04;21.90;62.60
59771;DHT22;45649;53.014;6.600;2022-07-29T12:53:31;21.90;61.20
59771;DHT22;45649;53.014;6.600;2022-07-29T12:55:58;21.90;61.30
59771;DHT22;45649;53.014;6.600;2022-07-29T12:58:30;22.00;60.60
59771;DHT22;45649;53.014;6.600;2022-07-29T13:01:16;22.00;61.20
59771;DHT22;45649;53.014;6.600;2022-07-29T13:03:54;22.00;61.10
59771;DHT22;45649;53.014;6.600;2022-07-29T13:06:35;22.00;60.90
59771;DHT22;45649;53.014;6.600;2022-07-29T13:09:16;22.00;61.40
59771;DHT22;45649;53.014;6.600;2022-07-29T13:14:11;22.20;62.60
59771;DHT22;45649;53.014;6.600;2022-07-29T13:17:01;22.30;60.20
59771;DHT22;45649;53.014;6.600;2022-07-29T13:19:33;22.20;60.40
59771;DHT22;45649;53.014;6.600;2022-07-29T13:22:02;22.30;61.00
59771;DHT22;45649;53.014;6.600;2022-07-29T13:24:28;22.40;60.50
59771;DHT22;45649;53.014;6.600;2022-07-29T13:26:55;22.50;62.20
59771;DHT22;45649;53.014;6.600;2022-07-29T13:29:20;22.60;60.40
59771;DHT22;45649;53.014;6.600;2022-07-29T13:31:46;22.60;62.30
59771;DHT22;45649;53.014;6.600;2022-07-29T13:34:12;22.50;61.20
59771;DHT22;45649;53.014;6.600;2022-07-29T13:36:37;22.50;60.90
59771;DHT22;45649;53.014;6.600;2022-07-29T13:39:03;22.50;61.00
59771;DHT22;45649;53.014;6.600;2022-07-29T13:41:30;22.50;60.20
59771;DHT22;45649;53.014;6.600;2022-07-29T13:43:56;22.50;60.00
59771;DHT22;45649;53.014;6.600;2022-07-29T13:46:22;22.60;59.90
59771;DHT22;45649;53.014;6.600;2022-07-29T13:48:48;22.60;59.60
59771;DHT22;45649;53.014;6.600;2022-07-29T13:51:14;22.80;59.80
59771;DHT22;45649;53.014;6.600;2022-07-29T13:53:40;22.90;61.80
59771;DHT22;45649;53.014;6.600;2022-07-29T13:56:06;23.20;59.70
59771;DHT22;45649;53.014;6.600;2022-07-29T13:58:33;23.30;60.30
59771;DHT22;45649;53.014;6.600;2022-07-29T14:00:59;23.40;59.00
59771;DHT22;45649;53.014;6.600;2022-07-29T14:03:25;23.50;59.80
59771;DHT22;45649;53.014;6.600;2022-07-29T14:05:51;23.30;58.70
59771;DHT22;45649;53.014;6.600;2022-07-29T14:08:16;23.30;59.10
59771;DHT22;45649;53.014;6.600;2022-07-29T14:10:42;23.30;57.80
59771;DHT22;45649;53.014;6.600;2022-07-29T14:13:08;23.40;60.20
59771;DHT22;45649;53.014;6.600;2022-07-29T14:15:34;23.60;60.20
59771;DHT22;45649;53.014;6.600;2022-07-29T14:18:00;23.70;59.50
59771;DHT22;45649;53.014;6.600;2022-07-29T14:20:26;23.70;59.70
59771;DHT22;45649;53.014;6.600;2022-07-29T14:22:55;23.50;57.10
59771;DHT22;45649;53.014;6.600;2022-07-29T14:25:21;23.50;57.40
59771;DHT22;45649;53.014;6.600;2022-07-29T14:27:47;23.50;56.40
59771;DHT22;45649;53.014;6.600;2022-07-29T14:30:14;23.50;56.80
59771;DHT22;45649;53.014;6.600;2022-07-29T14:32:40;23.50;57.90
59771;DHT22;45649;53.014;6.600;2022-07-29T14:35:06;23.50;56.20
59771;DHT22;45649;53.014;6.600;2022-07-29T14:37:33;23.50;56.80
59771;DHT22;45649;53.014;6.600;2022-07-29T14:40:01;23.50;56.70
59771;DHT22;45649;53.014;6.600;2022-07-29T14:42:31;23.60;58.30
59771;DHT22;45649;53.014;6.600;2022-07-29T14:44:57;23.70;58.40
59771;DHT22;45649;53.014;6.600;2022-07-29T14:47:23;23.70;56.00
59771;DHT22;45649;53.014;6.600;2022-07-29T14:49:49;23.80;56.00
59771;DHT22;45649;53.014;6.600;2022-07-29T14:52:15;23.90;56.90
59771;DHT22;45649;53.014;6.600;2022-07-29T14:54:41;23.80;56.60
59771;DHT22;45649;53.014;6.600;2022-07-29T14:57:06;23.80;55.00
59771;DHT22;45649;53.014;6.600;2022-07-29T14:59:32;23.90;56.60
59771;DHT22;45649;53.014;6.600;2022-07-29T15:01:58;23.80;55.40
59771;DHT22;45649;53.014;6.600;2022-07-29T15:04:24;23.70;54.50
59771;DHT22;45649;53.014;6.600;2022-07-29T15:06:51;23.80;54.80
59771;DHT22;45649;53.014;6.600;2022-07-29T15:09:17;23.90;54.30
59771;DHT22;45649;53.014;6.600;2022-07-29T15:11:43;23.80;53.00
59771;DHT22;45649;53.014;6.600;2022-07-29T15:14:10;23.80;56.20
59771;DHT22;45649;53.014;6.600;2022-07-29T15:16:37;23.80;56.20
59771;DHT22;45649;53.014;6.600;2022-07-29T15:19:04;23.80;54.60
59771;DHT22;45649;53.014;6.600;2022-07-29T15:21:30;23.80;55.00
59771;DHT22;45649;53.014;6.600;2022-07-29T15:23:55;23.80;54.80
59771;DHT22;45649;53.014;6.600;2022-07-29T15:26:21;23.80;55.20
59771;DHT22;45649;53.014;6.600;2022-07-29T15:28:47;23.90;56.90
59771;DHT22;45649;53.014;6.600;2022-07-29T15:31:13;23.90;56.10
59771;DHT22;45649;53.014;6.600;2022-07-29T15:33:39;23.90;56.10
59771;DHT22;45649;53.014;6.600;2022-07-29T15:36:06;23.80;53.20
59771;DHT22;45649;53.014;6.600;2022-07-29T15:38:32;23.70;53.80
59771;DHT22;45649;53.014;6.600;2022-07-29T15:40:58;23.70;54.80
59771;DHT22;45649;53.014;6.600;2022-07-29T15:43:24;23.80;56.90
59771;DHT22;45649;53.014;6.600;2022-07-29T15:45:50;23.70;54.00
59771;DHT22;45649;53.014;6.600;2022-07-29T15:48:38;23.60;54.10
59771;DHT22;45649;53.014;6.600;2022-07-29T15:51:04;23.70;56.20
59771;DHT22;45649;53.014;6.600;2022-07-29T15:53:30;23.80;56.70
59771;DHT22;45649;53.014;6.600;2022-07-29T15:55:56;23.70;54.30
59771;DHT22;45649;53.014;6.600;2022-07-29T15:58:22;23.70;54.70
59771;DHT22;45649;53.014;6.600;2022-07-29T16:00:48;23.60;55.50
59771;DHT22;45649;53.014;6.600;2022-07-29T16:03:13;23.60;55.80
59771;DHT22;45649;53.014;6.600;2022-07-29T16:05:40;23.60;55.80
59771;DHT22;45649;53.014;6.600;2022-07-29T16:08:06;23.60;54.90
59771;DHT22;45649;53.014;6.600;2022-07-29T16:10:32;23.60;55.90
59771;DHT22;45649;53.014;6.600;2022-07-29T16:12:58;23.50;53.80